Time;durP1;ratioP1;P1;durP2;ratioP2;P2;SDS_P1;SDS_P2;PMS_P1;PMS_P2;Temp;Humidity;BMP_temperature;BMP_pressure;BME280_temperature;BME280_humidity;BME280_pressure;Samples;Min_cycle;Max_cycle;Signal;HPM_P1;HPM_P2
2022/07/14 00:00:55;;;;;;;20.70;5.45;;;;;;;19.46;70.83;101564.97;5110794;28;20063;-58
2022/07/14 00:03:22;;;;;;;18.90;5.07;;;;;;;19.49;70.49;101564.59;5104076;28;20182;-57
2022/07/14 00:05:48;;;;;;;19.73;5.68;;;;;;;19.58;70.67;101565.28;5089192;28;20048;-57
2022/07/14 00:08:15;;;;;;;27.70;5.78;;;;;;;19.68;70.29;101566.63;5089750;28;20040;-57
2022/07/14 00:10:42;;;;;;;21.65;5.03;;;;;;;19.64;70.03;101568.03;5090102;28;20050;-57
2022/07/14 00:13:09;;;;;;;21.85;5.25;;;;;;;19.54;70.01;101573.75;5089108;28;20075;-57
2022/07/14 00:15:36;;;;;;;20.10;4.90;;;;;;;19.60;70.13;101577.50;5090295;28;20048;-57
2022/07/14 00:18:03;;;;;;;19.10;4.97;;;;;;;19.59;70.79;101588.47;5090276;28;20059;-57
2022/07/14 00:20:30;;;;;;;29.23;6.03;;;;;;;19.38;71.08;101574.00;5089826;28;20036;-57
2022/07/14 00:22:57;;;;;;;26.23;5.45;;;;;;;19.42;70.96;101577.97;5090273;28;20045;-58
2022/07/14 00:25:24;;;;;;;21.38;5.35;;;;;;;19.34;71.44;101575.41;5089920;28;20048;-57
2022/07/14 00:27:51;;;;;;;26.05;5.43;;;;;;;19.37;70.81;101557.03;5089922;28;20429;-57
2022/07/14 00:30:18;;;;;;;26.92;5.47;;;;;;;19.29;70.70;101567.91;5089444;28;20052;-56
2022/07/14 00:32:46;;;;;;;21.77;5.18;;;;;;;19.23;71.16;101566.00;5089954;28;20098;-56
2022/07/14 00:35:14;;;;;;;22.88;5.10;;;;;;;19.22;70.99;101571.56;5089110;28;20040;-57
2022/07/14 00:37:41;;;;;;;23.92;5.70;;;;;;;19.22;71.05;101563.50;5089621;28;20105;-57
2022/07/14 00:40:08;;;;;;;23.35;5.53;;;;;;;19.22;71.01;101568.88;5103417;28;20123;-57
2022/07/14 00:42:38;;;;;;;24.33;4.88;;;;;;;19.20;70.66;101570.94;5096909;28;20494;-57
2022/07/14 00:45:09;;;;;;;24.88;5.03;;;;;;;19.21;70.51;101568.06;5095016;28;20040;-57
2022/07/14 00:47:38;;;;;;;19.02;4.38;;;;;;;19.18;70.57;101568.41;5096619;28;20044;-57
2022/07/14 00:50:06;;;;;;;24.73;4.90;;;;;;;19.13;70.43;101563.59;5096111;28;20036;-57
2022/07/14 00:52:37;;;;;;;26.52;4.75;;;;;;;19.04;70.69;101554.00;5096096;28;20085;-57
2022/07/14 00:55:06;;;;;;;21.67;4.93;;;;;;;19.09;71.00;101550.75;5096269;28;20130;-57
2022/07/14 00:57:32;;;;;;;22.40;4.80;;;;;;;19.12;71.53;101553.06;5096320;28;20052;-58
2022/07/14 00:59:59;;;;;;;23.10;4.82;;;;;;;19.13;70.72;101560.91;5096103;28;20044;-57
2022/07/14 01:02:26;;;;;;;23.95;4.88;;;;;;;19.10;70.79;101564.00;5095199;28;20040;-57
2022/07/14 01:04:52;;;;;;;21.33;4.70;;;;;;;19.10;71.31;101549.69;5095909;28;20052;-57
2022/07/14 01:07:19;;;;;;;17.52;4.32;;;;;;;18.99;71.12;101548.34;5095860;28;20566;-56
2022/07/14 01:09:46;;;;;;;23.05;4.45;;;;;;;18.98;70.87;101552.06;5095872;28;20040;-59
2022/07/14 01:12:13;;;;;;;23.45;5.00;;;;;;;18.96;70.95;101552.25;5095716;28;20040;-58
2022/07/14 01:14:41;;;;;;;23.45;4.60;;;;;;;18.94;70.87;101543.56;5095916;28;20102;-56
2022/07/14 01:17:09;;;;;;;19.58;4.40;;;;;;;18.85;70.47;101547.38;5095730;28;20502;-56
2022/07/14 01:19:37;;;;;;;18.83;4.80;;;;;;;18.83;70.22;101543.19;5095567;28;20491;-57
2022/07/14 01:22:04;;;;;;;26.15;4.82;;;;;;;18.79;70.02;101546.25;5095766;28;20048;-57
2022/07/14 01:24:31;;;;;;;22.17;4.70;;;;;;;18.76;70.30;101548.47;5095500;28;20534;-57
2022/07/14 01:26:58;;;;;;;20.55;4.47;;;;;;;18.80;70.34;101541.69;5095723;28;20052;-57
2022/07/14 01:29:26;;;;;;;19.80;4.40;;;;;;;18.87;70.29;101542.66;5095268;28;20074;-57
2022/07/14 01:31:53;;;;;;;17.25;4.45;;;;;;;18.92;70.20;101545.59;5095442;28;20051;-57
2022/07/14 01:34:20;;;;;;;25.13;4.60;;;;;;;18.97;69.95;101539.63;5094947;28;20052;-58
2022/07/14 01:36:49;;;;;;;22.35;4.95;;;;;;;18.98;70.17;101534.06;5095527;28;20040;-57
2022/07/14 01:39:16;;;;;;;20.35;4.70;;;;;;;18.91;69.59;101541.25;5095266;28;20044;-57
2022/07/14 01:41:42;;;;;;;25.38;5.18;;;;;;;18.75;70.74;101552.19;5095499;28;20039;-57
2022/07/14 01:44:10;;;;;;;20.95;4.65;;;;;;;18.68;70.80;101557.50;5094993;28;20040;-57
2022/07/14 01:46:37;;;;;;;20.55;4.63;;;;;;;18.66;71.06;101570.25;5095254;28;20516;-56
2022/07/14 01:49:05;;;;;;;22.15;5.00;;;;;;;18.69;71.10;101571.75;5093830;28;20044;-57
2022/07/14 01:51:32;;;;;;;19.95;4.40;;;;;;;18.66;71.04;101577.50;5095128;28;20063;-57
2022/07/14 01:54:00;;;;;;;22.38;4.53;;;;;;;18.55;71.87;101576.94;5093812;28;20048;-57
2022/07/14 01:56:26;;;;;;;24.75;4.90;;;;;;;18.57;71.79;101574.94;5094888;28;20055;-57
2022/07/14 01:58:54;;;;;;;28.30;5.32;;;;;;;18.51;71.72;101569.47;5094985;28;20047;-57
2022/07/14 02:01:52;;;;;;;20.02;4.78;;;;;;;18.45;72.18;101562.16;5093821;28;20051;-57
2022/07/14 02:04:10;;;;;;;22.95;4.72;;;;;;;18.51;71.75;101556.03;5095858;28;20185;-57
2022/07/14 02:06:41;;;;;;;28.33;4.60;;;;;;;18.54;71.67;101551.09;5114900;28;20043;-57
2022/07/14 02:09:12;;;;;;;24.73;5.00;;;;;;;18.54;71.43;101548.44;5114182;28;20122;-57
2022/07/14 02:14:27;;;;;;;22.27;4.68;;;;;;;18.54;71.54;101526.94;5114692;28;20047;-57
2022/07/14 02:16:57;;;;;;;30.02;5.65;;;;;;;18.48;71.30;101537.59;5114927;28;20086;-57
2022/07/14 02:19:24;;;;;;;25.80;4.70;;;;;;;18.51;71.18;101531.84;5114883;28;20100;-57
2022/07/14 02:21:54;;;;;;;22.67;4.60;;;;;;;18.54;71.28;101529.63;5114958;27;20036;-57
2022/07/14 02:24:22;;;;;;;27.13;4.60;;;;;;;18.40;71.77;101531.28;5114845;28;20051;-57
2022/07/14 02:26:51;;;;;;;22.30;4.53;;;;;;;18.39;72.20;101535.00;5097136;28;20135;-57
2022/07/14 02:29:20;;;;;;;26.30;5.13;;;;;;;18.39;72.23;101526.94;5114342;28;20067;-57
2022/07/14 02:31:48;;;;;;;27.52;5.30;;;;;;;18.52;72.14;101523.59;5113856;28;20085;-57
2022/07/14 02:34:15;;;;;;;31.52;6.00;;;;;;;18.50;72.70;101525.66;5114823;28;20047;-57
2022/07/14 02:36:43;;;;;;;22.50;4.63;;;;;;;18.48;72.75;101522.31;5114738;28;20401;-57
2022/07/14 02:39:12;;;;;;;23.20;4.90;;;;;;;18.45;72.64;101529.91;5108499;28;20052;-57
2022/07/14 02:41:40;;;;;;;24.40;5.35;;;;;;;18.36;73.02;101524.63;5094046;28;20048;-57
2022/07/14 02:44:08;;;;;;;20.83;4.97;;;;;;;18.42;72.92;101528.41;5094055;28;20044;-57
2022/07/14 02:46:36;;;;;;;23.05;5.30;;;;;;;18.27;73.13;101520.38;5094170;28;20098;-57
2022/07/14 02:49:04;;;;;;;26.35;5.20;;;;;;;18.15;73.57;101533.41;5092588;28;20123;-57
2022/07/14 02:51:33;;;;;;;21.67;5.03;;;;;;;18.12;73.59;101539.19;5093926;28;20040;-57
2022/07/14 02:54:00;;;;;;;26.55;5.32;;;;;;;18.24;73.32;101547.59;5094118;28;20052;-57
2022/07/14 02:56:27;;;;;;;20.42;5.20;;;;;;;18.21;73.87;101556.03;5093922;28;20052;-57
2022/07/14 02:58:56;;;;;;;22.25;5.10;;;;;;;18.12;74.01;101551.75;5092761;28;20489;-57
2022/07/14 03:01:23;;;;;;;21.88;5.03;;;;;;;18.02;74.58;101563.59;5093701;28;20032;-57
2022/07/14 03:03:50;;;;;;;25.88;5.25;;;;;;;18.08;74.00;101562.06;5092603;28;20086;-57
2022/07/14 03:06:19;;;;;;;20.23;4.80;;;;;;;18.05;74.05;101553.53;5093643;28;20093;-57
2022/07/14 03:08:50;;;;;;;26.67;5.40;;;;;;;18.05;74.25;101540.94;5093886;28;20055;-57
2022/07/14 03:11:18;;;;;;;25.92;5.30;;;;;;;18.02;74.47;101549.34;5093614;28;20073;-57
2022/07/14 03:13:45;;;;;;;21.83;5.13;;;;;;;17.97;75.58;101547.22;5094272;28;20048;-57
2022/07/14 03:16:13;;;;;;;26.48;5.03;;;;;;;18.06;76.03;101547.13;5093777;28;20044;-57
2022/07/14 03:18:44;;;;;;;29.10;5.38;;;;;;;17.92;75.63;101548.75;5093781;28;20048;-57
2022/07/14 03:21:12;;;;;;;27.70;7.00;;;;;;;17.79;75.74;101549.34;5093601;28;20131;-57
2022/07/14 03:23:44;;;;;;;28.52;5.57;;;;;;;17.86;75.48;101536.09;5093627;28;20048;-57
2022/07/14 03:26:16;;;;;;;25.92;5.80;;;;;;;17.81;75.29;101517.84;5093512;28;20044;-57
2022/07/14 03:28:43;;;;;;;29.15;5.20;;;;;;;17.75;75.75;101516.69;5093260;28;20051;-57
2022/07/14 03:31:10;;;;;;;28.98;5.13;;;;;;;17.77;76.04;101512.00;5091779;28;20055;-57
2022/07/14 03:33:38;;;;;;;32.00;5.45;;;;;;;17.86;75.51;101525.34;5092912;28;20044;-57
2022/07/14 03:36:05;;;;;;;26.58;5.35;;;;;;;17.91;75.72;101526.47;5093487;28;20478;-57
2022/07/14 03:38:34;;;;;;;25.42;5.68;;;;;;;17.96;75.43;101532.13;5093308;28;20051;-57
2022/07/14 03:41:04;;;;;;;22.30;5.25;;;;;;;17.94;74.55;101534.16;5093743;28;20044;-57
2022/07/14 03:43:33;;;;;;;32.40;6.38;;;;;;;17.97;74.36;101532.94;5093401;28;20052;-57
2022/07/14 03:46:02;;;;;;;28.80;5.10;;;;;;;17.87;74.71;101525.19;5093063;28;20040;-57
2022/07/14 03:48:28;;;;;;;21.50;5.03;;;;;;;17.85;74.55;101521.84;5093282;28;20474;-57
2022/07/14 03:51:00;;;;;;;26.10;5.18;;;;;;;17.87;74.33;101529.72;5093344;28;20047;-57
2022/07/14 03:53:30;;;;;;;23.70;5.00;;;;;;;17.75;74.67;101529.28;5093108;28;20067;-57
2022/07/14 03:55:58;;;;;;;28.25;5.25;;;;;;;17.79;75.67;101522.53;5091954;28;20078;-57
2022/07/14 03:58:26;;;;;;;26.40;5.15;;;;;;;17.86;74.72;101520.00;5093027;28;20098;-58
2022/07/14 04:00:53;;;;;;;27.67;5.28;;;;;;;17.90;75.16;101519.44;5091825;28;20040;-58
2022/07/14 04:03:20;;;;;;;24.63;5.10;;;;;;;17.91;74.93;101515.72;5092657;28;20493;-57
2022/07/14 04:05:48;;;;;;;29.05;5.07;;;;;;;17.88;74.11;101513.41;5080909;28;20098;-58
2022/07/14 04:08:17;;;;;;;23.83;5.15;;;;;;;17.84;74.36;101507.56;5072534;28;20486;-58
2022/07/14 04:10:48;;;;;;;;;;;;;;;17.88;73.85;101508.03;5073280;28;20116;-57
2022/07/14 04:13:15;;;;;;;26.60;4.82;;;;;;;17.86;73.86;101517.31;5072720;28;19927;-56
2022/07/14 04:15:42;;;;;;;24.23;4.85;;;;;;;17.85;73.69;101513.78;5072426;28;20040;-58
2022/07/14 04:18:09;;;;;;;29.95;5.10;;;;;;;17.96;74.32;101513.34;5076491;28;20040;-58
2022/07/14 04:20:38;;;;;;;27.52;5.30;;;;;;;17.98;73.62;101513.16;5076710;28;20088;-58
2022/07/14 04:23:05;;;;;;;24.65;5.30;;;;;;;17.92;73.58;101520.09;5076660;28;20048;-59
2022/07/14 04:25:32;;;;;;;21.67;5.30;;;;;;;17.91;74.23;101525.66;5076176;28;20044;-57
2022/07/14 04:27:59;;;;;;;25.92;5.47;;;;;;;17.86;73.50;101525.34;5076653;28;20040;-57
2022/07/14 04:30:27;;;;;;;25.90;6.03;;;;;;;17.72;73.85;101524.28;5075242;28;20387;-57
2022/07/14 04:32:55;;;;;;;28.92;5.53;;;;;;;17.77;73.83;101535.28;5076442;28;20049;-57
2022/07/14 04:35:21;;;;;;;36.25;5.18;;;;;;;17.75;73.82;101526.59;5076425;28;20437;-57
2022/07/14 04:37:48;;;;;;;40.15;5.25;;;;;;;17.68;74.20;101525.66;5076313;28;20041;-58
2022/07/14 04:40:36;;;;;;;27.98;5.70;;;;;;;17.86;74.00;101536.91;5093221;28;20033;-57
2022/07/14 04:43:03;;;;;;;27.33;5.55;;;;;;;17.75;74.01;101542.69;5096585;28;20127;-57
2022/07/14 04:45:31;;;;;;;23.58;5.10;;;;;;;17.74;73.88;101539.19;5096301;28;20052;-58
2022/07/14 04:47:58;;;;;;;26.10;5.13;;;;;;;17.69;74.16;101543.44;5096341;28;20508;-58
2022/07/14 04:53:14;;;;;;;28.33;6.18;;;;;;;17.63;74.33;101540.47;5096193;28;20044;-58
2022/07/14 04:55:45;;;;;;;22.35;5.63;;;;;;;17.53;75.04;101547.09;5096250;28;20397;-58
2022/07/14 04:58:25;;;;;;;27.08;5.57;;;;;;;17.46;75.05;101537.09;5096372;28;20047;-57
2022/07/14 05:00:58;;;;;;;28.60;6.75;;;;;;;17.48;75.07;101531.53;5096076;28;20044;-58
2022/07/14 05:03:29;;;;;;;28.20;5.80;;;;;;;17.45;75.42;101535.41;5095579;28;20405;-58
2022/07/14 05:05:56;;;;;;;28.15;5.00;;;;;;;17.41;75.94;101536.78;5094402;28;20131;-58
2022/07/14 05:08:23;;;;;;;32.28;5.15;;;;;;;17.39;75.89;101540.66;5096037;28;20082;-57
2022/07/14 05:10:49;;;;;;;22.02;5.47;;;;;;;17.39;75.72;101533.47;5095786;28;20127;-56
2022/07/14 05:13:17;;;;;;;21.05;5.05;;;;;;;17.50;75.99;101539.38;5095950;28;20050;-57
2022/07/14 05:15:44;;;;;;;26.23;5.30;;;;;;;17.40;75.65;101532.44;5095880;28;20059;-57
2022/07/14 05:18:11;;;;;;;20.80;5.35;;;;;;;17.45;75.54;101540.78;5095769;28;20040;-57
2022/07/14 05:20:39;;;;;;;23.80;5.50;;;;;;;17.37;75.63;101532.81;5095745;28;20093;-57
2022/07/14 05:23:07;;;;;;;32.83;5.55;;;;;;;17.44;75.74;101536.44;5095700;28;20054;-58
2022/07/14 05:25:35;;;;;;;32.00;5.80;;;;;;;17.45;75.47;101524.69;5095485;28;20105;-58
2022/07/14 05:28:03;;;;;;;26.15;5.85;;;;;;;17.47;75.46;101535.22;5095182;28;20038;-57
2022/07/14 05:30:37;;;;;;;27.48;5.80;;;;;;;17.50;75.10;101532.19;5094553;28;20056;-57
2022/07/14 05:33:03;;;;;;;38.83;6.88;;;;;;;17.52;75.25;101542.72;5095383;28;20130;-57
2022/07/14 05:35:31;;;;;;;30.58;5.82;;;;;;;17.49;75.02;101538.56;5094424;28;20048;-57
2022/07/14 05:38:00;;;;;;;32.22;5.80;;;;;;;17.55;74.82;101539.69;5095323;28;20406;-57
2022/07/14 05:40:27;;;;;;;33.63;5.85;;;;;;;17.44;75.04;101539.13;5095120;28;20550;-57
2022/07/14 05:42:54;;;;;;;34.05;5.90;;;;;;;17.41;75.42;101534.09;5095282;28;20051;-57
2022/07/14 05:45:20;;;;;;;35.75;5.97;;;;;;;17.35;75.27;101544.72;5095145;28;20044;-57
2022/07/14 05:47:47;;;;;;;34.67;7.30;;;;;;;17.41;74.86;101528.75;5095225;28;20040;-57
2022/07/14 05:50:14;;;;;;;26.25;5.70;;;;;;;17.60;74.87;101538.13;5095044;28;20126;-57
2022/07/14 05:52:43;;;;;;;35.25;5.53;;;;;;;17.74;73.95;101538.38;5094635;28;20106;-57
2022/07/14 05:55:10;;;;;;;37.17;6.47;;;;;;;17.72;74.24;101540.38;5094482;28;20085;-57
2022/07/14 05:57:37;;;;;;;36.45;5.40;;;;;;;17.69;73.70;101540.75;5094891;28;20489;-57
2022/07/14 06:00:08;;;;;;;28.73;5.82;;;;;;;17.61;74.15;101533.63;5094880;28;20075;-57
2022/07/14 06:02:51;;;;;;;30.67;5.55;;;;;;;17.59;74.25;101535.63;5111018;27;20376;-57
2022/07/14 06:05:21;;;;;;;33.58;6.18;;;;;;;17.64;74.18;101536.78;5108424;28;20066;-56
2022/07/14 06:07:48;;;;;;;27.05;6.28;;;;;;;17.68;73.79;101544.44;5110850;28;20055;-57
2022/07/14 06:10:16;;;;;;;39.03;6.43;;;;;;;17.75;73.83;101543.53;5110177;28;20032;-57
2022/07/14 06:12:46;;;;;;;43.22;6.47;;;;;;;17.85;73.71;101551.38;5110905;28;20064;-57
2022/07/14 06:15:14;;;;;;;28.88;5.70;;;;;;;17.94;73.42;101560.19;5110887;28;20130;-57
2022/07/14 06:17:40;;;;;;;31.80;6.75;;;;;;;17.79;72.82;101560.94;5111030;28;20163;-57
2022/07/14 06:20:08;;;;;;;33.80;6.63;;;;;;;18.00;73.56;101562.94;5110924;28;20407;-57
2022/07/14 06:22:40;;;;;;;34.10;5.68;;;;;;;18.13;72.86;101553.44;5110963;28;20215;-57
2022/07/14 06:25:08;;;;;;;24.85;5.32;;;;;;;18.05;72.50;101551.66;5110827;28;20048;-57
2022/07/14 06:27:35;;;;;;;24.67;5.60;;;;;;;18.00;72.03;101548.69;5110916;28;20061;-57
2022/07/14 06:30:06;;;;;;;38.22;6.03;;;;;;;17.91;72.44;101550.63;5110347;28;20120;-59
2022/07/14 06:32:36;;;;;;;30.48;6.60;;;;;;;17.85;72.60;101556.72;5109652;28;20139;-57
2022/07/14 06:35:03;;;;;;;27.60;6.65;;;;;;;17.88;72.85;101550.97;5110093;28;20044;-57
2022/07/14 06:37:30;;;;;;;28.88;6.90;;;;;;;17.91;72.78;101558.69;5110354;28;20043;-57
2022/07/14 06:39:57;;;;;;;31.25;5.70;;;;;;;17.93;72.65;101563.88;5110474;28;20039;-58
2022/07/14 06:42:24;;;;;;;35.92;6.45;;;;;;;18.05;72.59;101562.41;5092538;28;20055;-57
2022/07/14 06:45:02;;;;;;;33.67;5.55;;;;;;;18.13;71.81;101558.78;5110506;28;20048;-58
2022/07/14 06:47:30;;;;;;;27.88;6.60;;;;;;;18.14;71.49;101563.16;5109326;28;20043;-57
2022/07/14 06:49:59;;;;;;;34.08;5.90;;;;;;;18.20;71.23;101555.19;5110324;28;20040;-57
2022/07/14 06:52:26;;;;;;;33.28;5.82;;;;;;;18.36;71.20;101556.03;5092255;28;20064;-57
2022/07/14 06:54:53;;;;;;;28.90;4.85;;;;;;;18.34;70.67;101555.38;5109350;28;20808;-58
2022/07/14 06:57:20;;;;;;;28.08;5.45;;;;;;;18.44;70.61;101544.34;5110355;28;20048;-57
2022/07/14 06:59:47;;;;;;;27.98;5.32;;;;;;;18.46;70.35;101547.69;5109870;28;20443;-58
2022/07/14 07:02:13;;;;;;;25.48;4.68;;;;;;;18.63;69.38;101546.47;5109660;28;20055;-57
2022/07/14 07:04:40;;;;;;;29.13;5.30;;;;;;;18.73;69.39;101548.84;5109563;28;20397;-57
2022/07/14 07:07:07;;;;;;;27.92;5.25;;;;;;;18.59;68.34;101554.06;5109894;28;20048;-57
2022/07/14 07:09:34;;;;;;;34.65;4.97;;;;;;;18.48;69.27;101546.50;5101845;28;20061;-57
2022/07/14 07:12:00;;;;;;;25.88;4.22;;;;;;;18.59;68.80;101537.09;5109069;28;20048;-57
2022/07/14 07:14:27;;;;;;;31.17;4.68;;;;;;;18.61;68.76;101532.41;5077777;28;20066;-58
2022/07/14 07:16:54;;;;;;;31.30;5.05;;;;;;;18.53;68.60;101529.81;5096252;28;20054;-57
2022/07/14 07:19:21;;;;;;;24.92;4.45;;;;;;;18.56;68.40;101529.44;5095058;28;20051;-57
2022/07/14 07:21:48;;;;;;;38.38;4.93;;;;;;;18.73;68.45;101538.94;5096007;28;20071;-57
2022/07/14 07:24:15;;;;;;;30.02;5.00;;;;;;;18.96;68.17;101529.94;5096203;28;20060;-57
2022/07/14 07:26:42;;;;;;;23.88;4.20;;;;;;;18.96;66.90;101530.75;5096151;28;20043;-57
2022/07/14 07:29:09;;;;;;;26.70;4.38;;;;;;;19.13;67.19;101539.41;5096021;28;20048;-57
2022/07/14 07:31:37;;;;;;;33.78;5.22;;;;;;;19.20;66.65;101533.28;5105343;27;20040;-49
2022/07/14 07:34:03;;;;;;;25.73;5.25;;;;;;;19.06;66.16;101535.81;5100602;28;20063;-51
2022/07/14 07:36:31;;;;;;;26.95;5.60;;;;;;;19.00;66.24;101533.88;5100273;28;20046;-49
2022/07/14 07:38:58;;;;;;;26.88;5.30;;;;;;;19.04;66.11;101532.47;5095223;28;20040;-49
2022/07/14 07:41:25;;;;;;;33.55;5.57;;;;;;;19.02;66.46;101539.91;5085489;28;20059;-48
2022/07/14 07:43:51;;;;;;;29.08;4.90;;;;;;;19.05;65.66;101544.09;5093479;28;20566;-48
2022/07/14 07:46:18;;;;;;;30.83;5.10;;;;;;;18.99;66.00;101546.50;5089672;28;20097;-50
2022/07/14 07:48:45;;;;;;;26.88;5.40;;;;;;;19.07;66.11;101542.03;5096892;28;20485;-50
2022/07/14 07:51:12;;;;;;;25.35;5.45;;;;;;;19.04;66.22;101537.03;5083915;28;20036;-49
2022/07/14 07:53:38;;;;;;;30.17;5.72;;;;;;;19.05;66.43;101542.22;5091427;28;20040;-50
2022/07/14 07:56:05;;;;;;;34.97;5.82;;;;;;;19.20;65.69;101533.28;5079730;28;20482;-52
2022/07/14 07:58:32;;;;;;;23.48;4.38;;;;;;;19.25;64.80;101528.97;5093808;28;20040;-51
2022/07/14 08:00:58;;;;;;;28.98;5.10;;;;;;;19.28;63.77;101533.97;5092207;28;20489;-50
2022/07/14 08:03:25;;;;;;;23.90;4.40;;;;;;;19.33;63.31;101523.44;5087428;28;20098;-50
2022/07/14 08:05:52;;;;;;;25.20;4.68;;;;;;;19.55;62.83;101529.69;5089230;28;20071;-56
2022/07/14 08:08:30;;;;;;;27.25;6.40;;;;;;;19.72;62.90;101522.13;5082435;28;20039;-52
2022/07/14 08:10:57;;;;;;;27.27;5.35;;;;;;;19.92;61.92;101516.09;5101959;28;20099;-51
2022/07/14 08:13:24;;;;;;;34.55;5.60;;;;;;;20.07;60.41;101510.59;5103491;28;20044;-49
2022/07/14 08:15:50;;;;;;;26.15;5.03;;;;;;;20.07;58.95;101507.91;5114171;28;20048;-53
2022/07/14 08:18:17;;;;;;;26.15;5.47;;;;;;;20.36;57.14;101506.81;5097446;28;20051;-52
2022/07/14 08:20:44;;;;;;;21.30;4.40;;;;;;;20.24;53.41;101509.22;5109141;27;20060;-52
2022/07/14 08:23:11;;;;;;;20.30;3.67;;;;;;;20.28;53.53;101505.13;5101578;28;20058;-52
2022/07/14 08:25:39;;;;;;;26.00;4.20;;;;;;;20.26;54.46;101503.63;5096548;28;20087;-48
2022/07/14 08:28:06;;;;;;;23.90;4.00;;;;;;;20.34;54.29;101503.47;5080636;28;20056;-52
2022/07/14 08:30:32;;;;;;;19.55;4.13;;;;;;;20.22;54.60;101497.81;5076432;28;20039;-53
2022/07/14 08:32:59;;;;;;;20.40;4.20;;;;;;;20.29;54.61;101495.16;5084650;28;20128;-52
2022/07/14 08:35:26;;;;;;;23.60;4.18;;;;;;;20.51;55.87;101496.69;5077825;28;20398;-52
2022/07/14 08:37:54;;;;;;;22.95;4.25;;;;;;;20.56;55.12;101489.88;5095000;28;20123;-52
2022/07/14 08:40:23;;;;;;;18.30;3.88;;;;;;;20.64;54.54;101500.50;5083263;28;20044;-50
2022/07/14 08:42:52;;;;;;;17.23;3.60;;;;;;;20.46;52.07;101488.38;5103820;28;20032;-49
2022/07/14 08:45:22;;;;;;;26.63;4.13;;;;;;;20.45;52.51;101481.34;5103534;28;20056;-53
2022/07/14 08:47:50;;;;;;;17.15;3.60;;;;;;;20.62;51.21;101489.09;5098147;28;20054;-53
2022/07/14 08:50:19;;;;;;;17.02;4.25;;;;;;;20.85;50.27;101497.66;5091328;28;20572;-52
2022/07/14 08:52:48;;;;;;;15.15;3.30;;;;;;;20.86;50.35;101493.09;5096066;28;20059;-51
2022/07/14 08:55:18;;;;;;;19.95;3.50;;;;;;;20.93;49.79;101493.13;5098508;28;20101;-53
2022/07/14 08:57:45;;;;;;;14.52;3.00;;;;;;;20.98;49.18;101496.03;5090390;28;20048;-52
2022/07/14 09:00:15;;;;;;;23.88;3.75;;;;;;;20.70;49.04;101489.75;5088618;28;21019;-53
2022/07/14 09:02:53;;;;;;;19.08;4.53;;;;;;;20.81;50.47;101487.47;5085021;28;20052;-53
2022/07/14 09:05:41;;;;;;;23.92;4.18;;;;;;;20.64;49.57;101490.53;5097610;28;20092;-53
2022/07/14 09:08:07;;;;;;;15.32;3.25;;;;;;;20.79;50.61;101492.25;5093858;28;20093;-53
2022/07/14 09:10:34;;;;;;;22.33;3.60;;;;;;;21.07;48.76;101492.94;5096093;27;20050;-53
2022/07/14 09:13:17;;;;;;;18.08;3.58;;;;;;;21.05;46.92;101494.19;5084856;28;20040;-50
2022/07/14 09:15:45;;;;;;;20.85;3.85;;;;;;;21.19;47.75;101493.16;5091485;28;20048;-51
2022/07/14 09:18:23;;;;;;;16.33;3.70;;;;;;;21.26;48.34;101501.25;5086803;28;20129;-51
2022/07/14 09:20:52;;;;;;;21.17;4.55;;;;;;;21.22;48.39;101500.84;5085581;28;20425;-50
2022/07/14 09:23:35;;;;;;;29.15;4.20;;;;;;;21.12;48.65;101496.88;5098471;28;20047;-51
2022/07/14 09:26:14;;;;;;;20.02;4.13;;;;;;;21.36;49.34;101495.47;5094807;28;20048;-50
2022/07/14 09:28:42;;;;;;;25.20;4.68;;;;;;;21.42;50.01;101500.03;5085581;28;20062;-49
2022/07/14 09:31:23;;;;;;;22.83;4.57;;;;;;;21.58;50.16;101493.41;5095826;28;20056;-50
2022/07/14 09:33:51;;;;;;;23.77;4.70;;;;;;;21.40;47.85;101481.34;5092464;28;20494;-51
2022/07/14 09:36:21;;;;;;;26.45;4.57;;;;;;;21.63;48.11;101482.81;5087973;28;20044;-49
2022/07/14 09:38:49;;;;;;;22.23;4.55;;;;;;;21.88;49.00;101493.75;5093235;28;20077;-49
2022/07/14 09:41:16;;;;;;;23.13;4.30;;;;;;;22.13;47.22;101480.41;5096161;27;20452;-49
2022/07/14 09:44:11;;;;;;;18.38;4.03;;;;;;;22.33;47.60;101482.25;5094570;28;20047;-52
2022/07/14 09:46:52;;;;;;;19.25;3.90;;;;;;;22.36;47.00;101474.53;5092660;28;20047;-50
2022/07/14 09:49:23;;;;;;;31.15;4.45;;;;;;;22.37;45.80;101476.19;5080590;28;20048;-49
2022/07/14 09:51:59;;;;;;;15.10;2.78;;;;;;;22.29;39.63;101476.44;5093607;27;20545;-52
2022/07/14 09:54:46;;;;;;;15.82;3.55;;;;;;;22.23;40.29;101475.38;5090149;28;20378;-50
2022/07/14 09:57:18;;;;;;;19.90;3.83;;;;;;;22.32;43.12;101478.72;5080930;28;20044;-50
2022/07/14 09:59:48;;;;;;;20.10;4.07;;;;;;;22.65;42.19;101479.56;5083089;28;20050;-51
2022/07/14 10:02:19;;;;;;;30.02;4.00;;;;;;;22.59;41.97;101486.69;5103181;28;20121;-52
2022/07/14 10:04:46;;;;;;;24.70;3.85;;;;;;;22.49;40.88;101484.44;5086088;28;20079;-50
2022/07/14 10:07:15;;;;;;;18.73;3.80;;;;;;;22.81;42.02;101482.63;5097268;28;20047;-51
2022/07/14 10:09:49;;;;;;;23.13;4.10;;;;;;;22.67;42.34;101475.63;5093725;28;20501;-52
2022/07/14 10:12:16;;;;;;;17.95;3.45;;;;;;;22.86;43.39;101473.00;5089562;28;20493;-51
2022/07/14 10:14:43;;;;;;;20.55;3.97;;;;;;;22.59;41.43;101471.31;5106540;28;20566;-51
2022/07/14 10:17:12;;;;;;;14.68;4.10;;;;;;;22.90;42.78;101480.50;5091594;28;20564;-53
2022/07/14 10:19:38;;;;;;;23.77;4.72;;;;;;;22.98;40.09;101484.81;5099555;28;20481;-50
2022/07/14 10:22:06;;;;;;;16.85;3.78;;;;;;;23.05;39.59;101482.06;5084698;28;21939;-50
2022/07/14 10:24:34;;;;;;;14.98;3.55;;;;;;;23.23;39.16;101482.16;5078519;28;20043;-52
2022/07/14 10:27:05;;;;;;;16.00;3.35;;;;;;;23.34;39.34;101480.63;5088817;28;20078;-50
2022/07/14 10:29:32;;;;;;;20.30;4.05;;;;;;;23.47;36.91;101485.09;5108105;28;20130;-50
2022/07/14 10:32:26;;;;;;;17.70;4.05;;;;;;;23.77;36.78;101469.75;5086744;28;20135;-49
2022/07/14 10:35:35;;;;;;;20.20;5.68;;;;;;;23.95;36.81;101471.69;5084478;28;20063;-51
2022/07/14 10:38:41;;;;;;;27.42;7.10;;;;;;;23.95;36.77;101487.94;5081278;28;20452;-52
2022/07/14 10:44:30;;;;;;;18.70;3.53;;;;;;;23.77;36.37;101479.78;5152708;27;20172;-52
2022/07/14 10:47:17;;;;;;;16.50;3.72;;;;;;;23.82;35.69;101477.25;5140434;27;20701;-49
2022/07/14 10:50:08;;;;;;;21.60;3.67;;;;;;;24.00;36.33;101465.59;5143643;27;20074;-50
2022/07/14 10:52:37;;;;;;;14.50;3.38;;;;;;;24.04;34.84;101479.53;5132553;27;20392;-51
2022/07/14 10:55:22;;;;;;;12.70;2.85;;;;;;;24.26;33.29;101472.59;5136579;27;20035;-50
2022/07/14 11:03:44;;;;;;;11.35;3.30;;;;;;;24.47;33.78;101463.16;5109304;27;20686;-51
2022/07/14 11:06:16;;;;;;;11.93;3.25;;;;;;;24.70;33.06;101461.59;5093759;28;20057;-51
2022/07/14 11:09:06;;;;;;;19.25;3.30;;;;;;;24.40;34.20;101458.88;5102357;28;20766;-49
2022/07/14 11:11:32;;;;;;;11.93;2.95;;;;;;;24.20;34.52;101461.84;5090605;28;20448;-50
2022/07/14 11:14:05;;;;;;;14.02;3.47;;;;;;;24.27;35.06;101470.72;5099390;28;20048;-53
2022/07/14 11:19:33;;;;;;;19.67;3.63;;;;;;;24.45;33.53;101461.69;5097581;27;20383;-49
2022/07/14 11:22:24;;;;;;;14.10;2.90;;;;;;;24.45;33.79;101469.84;5097006;28;20443;-51
2022/07/14 11:24:56;;;;;;;12.50;2.55;;;;;;;24.54;33.42;101460.38;5080820;28;20748;-49
2022/07/14 11:30:27;;;;;;;13.00;2.95;;;;;;;24.33;33.79;101476.03;5090718;27;20373;-50
2022/07/14 11:32:59;;;;;;;11.02;3.28;;;;;;;24.56;34.54;101465.56;5100525;28;20060;-52
2022/07/14 11:36:17;;;;;;;16.13;3.33;;;;;;;24.65;34.92;101466.88;5084009;28;20060;-50
2022/07/14 11:38:40;;;;;;;17.45;2.92;;;;;;;24.71;35.53;101469.50;5103585;28;20382;-49
2022/07/14 11:41:15;;;;;;;14.35;3.00;;;;;;;24.81;33.72;101478.97;5103350;28;20451;-51
2022/07/14 11:43:44;;;;;;;18.38;2.78;;;;;;;24.92;33.54;101467.31;5096086;28;20043;-50
2022/07/14 11:46:13;;;;;;;9.65;2.78;;;;;;;24.79;33.14;101465.63;5103224;28;20383;-52
2022/07/14 11:48:44;;;;;;;24.17;6.93;;;;;;;24.89;34.32;101465.09;5108984;28;20040;-49